sensor_id;sensor_type;location;lat;lon;timestamp;pressure;altitude;pressure_sealevel;temperature;humidity
76653;BME280;65563;45.970;12.680;2023-03-31T00:00:04;101504.50;;;11.53;78.45
76653;BME280;65563;45.970;12.680;2023-03-31T00:01:05;101496.19;;;11.56;78.16
76653;BME280;65563;45.970;12.680;2023-03-31T00:02:05;101496.34;;;11.55;78.25
76653;BME280;65563;45.970;12.680;2023-03-31T00:03:05;101495.50;;;11.54;78.15
76653;BME280;65563;45.970;12.680;2023-03-31T00:04:05;101495.50;;;11.54;78.03
76653;BME280;65563;45.970;12.680;2023-03-31T00:05:08;101489.38;;;11.54;78.33
76653;BME280;65563;45.970;12.680;2023-03-31T00:06:09;101494.19;;;11.58;78.37
76653;BME280;65563;45.970;12.680;2023-03-31T00:07:09;101492.16;;;11.60;78.19
76653;BME280;65563;45.970;12.680;2023-03-31T00:08:10;101486.72;;;11.54;78.02
76653;BME280;65563;45.970;12.680;2023-03-31T00:09:11;101484.53;;;11.57;78.12
76653;BME280;65563;45.970;12.680;2023-03-31T00:10:12;101475.72;;;11.57;78.00
76653;BME280;65563;45.970;12.680;2023-03-31T00:11:12;101473.88;;;11.57;78.06
76653;BME280;65563;45.970;12.680;2023-03-31T00:12:13;101476.88;;;11.54;78.07
76653;BME280;65563;45.970;12.680;2023-03-31T00:13:13;101472.91;;;11.58;78.07
76653;BME280;65563;45.970;12.680;2023-03-31T00:14:13;101475.38;;;11.60;77.92
76653;BME280;65563;45.970;12.680;2023-03-31T00:15:14;101471.88;;;11.59;77.81
76653;BME280;65563;45.970;12.680;2023-03-31T00:16:14;101481.03;;;11.57;77.89
76653;BME280;65563;45.970;12.680;2023-03-31T00:17:14;101474.22;;;11.54;78.30
76653;BME280;65563;45.970;12.680;2023-03-31T00:18:14;101478.69;;;11.62;78.18
76653;BME280;65563;45.970;12.680;2023-03-31T00:19:14;101475.38;;;11.60;77.93
76653;BME280;65563;45.970;12.680;2023-03-31T00:20:15;101470.72;;;11.62;77.71
76653;BME280;65563;45.970;12.680;2023-03-31T00:21:16;101472.50;;;11.61;78.03
76653;BME280;65563;45.970;12.680;2023-03-31T00:22:16;101470.94;;;11.52;78.12
76653;BME280;65563;45.970;12.680;2023-03-31T00:23:17;101468.56;;;11.57;77.96
76653;BME280;65563;45.970;12.680;2023-03-31T00:24:17;101468.91;;;11.54;78.22
76653;BME280;65563;45.970;12.680;2023-03-31T00:25:17;101465.97;;;11.49;78.50
76653;BME280;65563;45.970;12.680;2023-03-31T00:26:18;101462.50;;;11.40;79.00
76653;BME280;65563;45.970;12.680;2023-03-31T00:27:18;101457.31;;;11.47;78.98
76653;BME280;65563;45.970;12.680;2023-03-31T00:28:18;101464.59;;;11.53;78.50
76653;BME280;65563;45.970;12.680;2023-03-31T00:29:18;101464.25;;;11.56;78.66
76653;BME280;65563;45.970;12.680;2023-03-31T00:30:18;101464.91;;;11.58;78.03
76653;BME280;65563;45.970;12.680;2023-03-31T00:31:19;101464.25;;;11.56;78.35
76653;BME280;65563;45.970;12.680;2023-03-31T00:32:19;101460.94;;;11.54;78.47
76653;BME280;65563;45.970;12.680;2023-03-31T00:33:20;101459.09;;;11.55;78.25
76653;BME280;65563;45.970;12.680;2023-03-31T00:34:20;101450.59;;;11.59;78.21
76653;BME280;65563;45.970;12.680;2023-03-31T00:35:20;101447.13;;;11.59;78.10
76653;BME280;65563;45.970;12.680;2023-03-31T00:36:21;101444.19;;;11.68;77.90
76653;BME280;65563;45.970;12.680;2023-03-31T00:37:21;101443.25;;;11.61;78.00
76653;BME280;65563;45.970;12.680;2023-03-31T00:38:22;101441.72;;;11.67;77.79
76653;BME280;65563;45.970;12.680;2023-03-31T00:39:22;101440.69;;;11.68;77.87
76653;BME280;65563;45.970;12.680;2023-03-31T00:41:52;101439.28;;;11.57;78.13
76653;BME280;65563;45.970;12.680;2023-03-31T00:42:52;101439.13;;;11.59;78.23
76653;BME280;65563;45.970;12.680;2023-03-31T00:44:01;101435.47;;;11.60;78.23
76653;BME280;65563;45.970;12.680;2023-03-31T00:46:20;101442.16;;;11.56;78.26
76653;BME280;65563;45.970;12.680;2023-03-31T00:47:22;101434.44;;;11.61;78.40
76653;BME280;65563;45.970;12.680;2023-03-31T00:48:22;101428.72;;;11.49;78.78
76653;BME280;65563;45.970;12.680;2023-03-31T00:50:36;101435.00;;;11.56;78.54
76653;BME280;65563;45.970;12.680;2023-03-31T00:51:40;101432.31;;;11.56;78.37
76653;BME280;65563;45.970;12.680;2023-03-31T00:52:40;101436.16;;;11.54;78.62
76653;BME280;65563;45.970;12.680;2023-03-31T00:53:40;101428.38;;;11.52;78.71
76653;BME280;65563;45.970;12.680;2023-03-31T00:54:41;101426.34;;;11.54;78.48
76653;BME280;65563;45.970;12.680;2023-03-31T00:55:45;101428.19;;;11.54;78.58
76653;BME280;65563;45.970;12.680;2023-03-31T00:56:47;101429.34;;;11.51;78.63
76653;BME280;65563;45.970;12.680;2023-03-31T00:57:48;101426.06;;;11.49;78.76
76653;BME280;65563;45.970;12.680;2023-03-31T00:58:50;101423.56;;;11.47;78.72
76653;BME280;65563;45.970;12.680;2023-03-31T00:59:52;101426.69;;;11.51;78.77
76653;BME280;65563;45.970;12.680;2023-03-31T01:00:56;101423.06;;;11.52;79.01
76653;BME280;65563;45.970;12.680;2023-03-31T01:01:59;101428.25;;;11.45;78.82
76653;BME280;65563;45.970;12.680;2023-03-31T01:03:00;101426.34;;;11.54;78.80
76653;BME280;65563;45.970;12.680;2023-03-31T01:04:02;101426.59;;;11.44;78.84
76653;BME280;65563;45.970;12.680;2023-03-31T01:05:03;101425.41;;;11.47;78.85
76653;BME280;65563;45.970;12.680;2023-03-31T01:06:06;101431.38;;;11.49;78.92
76653;BME280;65563;45.970;12.680;2023-03-31T01:07:13;101422.34;;;11.58;78.71
76653;BME280;65563;45.970;12.680;2023-03-31T01:08:15;101426.34;;;11.54;78.88
76653;BME280;65563;45.970;12.680;2023-03-31T01:09:16;101422.59;;;11.49;78.81
76653;BME280;65563;45.970;12.680;2023-03-31T01:10:16;101423.75;;;11.46;79.22
76653;BME280;65563;45.970;12.680;2023-03-31T01:11:18;101426.19;;;11.56;78.74
76653;BME280;65563;45.970;12.680;2023-03-31T01:12:18;101415.69;;;11.54;78.80
76653;BME280;65563;45.970;12.680;2023-03-31T01:13:21;101414.75;;;11.47;78.82
76653;BME280;65563;45.970;12.680;2023-03-31T01:14:22;101418.78;;;11.43;79.12
76653;BME280;65563;45.970;12.680;2023-03-31T01:15:29;101412.84;;;11.41;79.25
76653;BME280;65563;45.970;12.680;2023-03-31T01:16:30;101409.63;;;11.45;79.24
76653;BME280;65563;45.970;12.680;2023-03-31T01:17:30;101407.44;;;11.49;79.09
76653;BME280;65563;45.970;12.680;2023-03-31T01:18:30;101406.63;;;11.49;79.16
76653;BME280;65563;45.970;12.680;2023-03-31T01:19:41;101403.78;;;11.50;79.08
76653;BME280;65563;45.970;12.680;2023-03-31T01:27:46;101393.84;;;11.44;79.57
76653;BME280;65563;45.970;12.680;2023-03-31T01:30:22;101397.22;;;11.38;79.80
76653;BME280;65563;45.970;12.680;2023-03-31T01:35:19;101388.16;;;11.47;79.58
76653;BME280;65563;45.970;12.680;2023-03-31T01:38:33;101385.94;;;11.36;80.30
76653;BME280;65563;45.970;12.680;2023-03-31T01:44:48;101384.22;;;11.43;80.47
76653;BME280;65563;45.970;12.680;2023-03-31T01:45:57;101380.63;;;11.36;80.49
76653;BME280;65563;45.970;12.680;2023-03-31T01:47:00;101376.94;;;11.37;80.73
76653;BME280;65563;45.970;12.680;2023-03-31T01:48:10;101376.91;;;11.45;80.72
76653;BME280;65563;45.970;12.680;2023-03-31T01:54:58;101370.78;;;11.36;81.29
76653;BME280;65563;45.970;12.680;2023-03-31T01:56:09;101375.66;;;11.33;81.28
76653;BME280;65563;45.970;12.680;2023-03-31T01:57:13;101368.50;;;11.33;81.25
76653;BME280;65563;45.970;12.680;2023-03-31T01:58:20;101365.19;;;11.31;81.33
76653;BME280;65563;45.970;12.680;2023-03-31T01:59:22;101363.38;;;11.32;81.37
76653;BME280;65563;45.970;12.680;2023-03-31T02:00:26;101365.38;;;11.30;81.52
76653;BME280;65563;45.970;12.680;2023-03-31T02:01:30;101359.88;;;11.31;81.78
76653;BME280;65563;45.970;12.680;2023-03-31T02:04:01;101351.09;;;11.31;82.03
76653;BME280;65563;45.970;12.680;2023-03-31T02:05:05;101360.03;;;11.30;81.96
76653;BME280;65563;45.970;12.680;2023-03-31T02:06:09;101355.66;;;11.37;81.55
76653;BME280;65563;45.970;12.680;2023-03-31T02:07:13;101356.41;;;11.31;81.68
76653;BME280;65563;45.970;12.680;2023-03-31T02:08:25;101355.94;;;11.27;81.87
76653;BME280;65563;45.970;12.680;2023-03-31T02:09:32;101354.44;;;11.25;81.91
76653;BME280;65563;45.970;12.680;2023-03-31T02:10:33;101355.38;;;11.32;81.92
76653;BME280;65563;45.970;12.680;2023-03-31T02:11:34;101355.56;;;11.30;82.12
76653;BME280;65563;45.970;12.680;2023-03-31T02:12:36;101349.59;;;11.28;81.97
76653;BME280;65563;45.970;12.680;2023-03-31T02:13:38;101341.25;;;11.31;82.03
76653;BME280;65563;45.970;12.680;2023-03-31T02:14:42;101344.41;;;11.35;81.76
76653;BME280;65563;45.970;12.680;2023-03-31T02:15:45;101342.28;;;11.30;82.03
76653;BME280;65563;45.970;12.680;2023-03-31T02:16:47;101336.09;;;11.30;81.86
76653;BME280;65563;45.970;12.680;2023-03-31T02:17:50;101340.44;;;11.31;82.21
76653;BME280;65563;45.970;12.680;2023-03-31T02:18:53;101335.94;;;11.31;81.98
76653;BME280;65563;45.970;12.680;2023-03-31T02:19:56;101339.25;;;11.33;81.83
76653;BME280;65563;45.970;12.680;2023-03-31T02:20:56;101337.13;;;11.29;81.97
76653;BME280;65563;45.970;12.680;2023-03-31T02:21:57;101335.47;;;11.28;82.32
76653;BME280;65563;45.970;12.680;2023-03-31T02:22:58;101338.13;;;11.28;82.15
76653;BME280;65563;45.970;12.680;2023-03-31T02:24:01;101336.31;;;11.28;82.28
76653;BME280;65563;45.970;12.680;2023-03-31T02:25:03;101326.31;;;11.30;82.02
76653;BME280;65563;45.970;12.680;2023-03-31T02:27:35;101333.81;;;11.27;82.14
76653;BME280;65563;45.970;12.680;2023-03-31T02:28:37;101340.59;;;11.29;82.15
76653;BME280;65563;45.970;12.680;2023-03-31T02:29:38;101337.59;;;11.32;81.97
76653;BME280;65563;45.970;12.680;2023-03-31T02:30:42;101343.94;;;11.31;82.05
76653;BME280;65563;45.970;12.680;2023-03-31T02:32:57;101337.13;;;11.29;82.09
76653;BME280;65563;45.970;12.680;2023-03-31T02:33:58;101343.50;;;11.19;82.41
76653;BME280;65563;45.970;12.680;2023-03-31T02:34:58;101339.31;;;11.25;82.34
76653;BME280;65563;45.970;12.680;2023-03-31T02:35:59;101339.13;;;11.27;82.31
76653;BME280;65563;45.970;12.680;2023-03-31T02:36:59;101338.13;;;11.28;82.23
76653;BME280;65563;45.970;12.680;2023-03-31T02:38:00;101330.31;;;11.26;82.40
76653;BME280;65563;45.970;12.680;2023-03-31T02:39:04;101338.13;;;11.28;82.32
76653;BME280;65563;45.970;12.680;2023-03-31T02:40:06;101333.81;;;11.27;82.33
76653;BME280;65563;45.970;12.680;2023-03-31T02:41:07;101337.00;;;11.22;82.43
76653;BME280;65563;45.970;12.680;2023-03-31T02:42:08;101332.81;;;11.28;82.26
76653;BME280;65563;45.970;12.680;2023-03-31T02:43:08;101328.13;;;11.30;82.48
76653;BME280;65563;45.970;12.680;2023-03-31T02:44:09;101328.47;;;11.27;82.14
76653;BME280;65563;45.970;12.680;2023-03-31T02:46:29;101327.66;;;11.26;82.32
76653;BME280;65563;45.970;12.680;2023-03-31T02:47:30;101325.19;;;11.25;82.46
76653;BME280;65563;45.970;12.680;2023-03-31T02:48:34;101326.22;;;11.23;82.45
76653;BME280;65563;45.970;12.680;2023-03-31T02:49:38;101318.25;;;11.23;82.43
76653;BME280;65563;45.970;12.680;2023-03-31T02:50:47;101321.53;;;11.26;82.37
76653;BME280;65563;45.970;12.680;2023-03-31T02:52:57;101308.13;;;11.19;82.72
76653;BME280;65563;45.970;12.680;2023-03-31T02:54:19;101307.59;;;11.23;82.74
76653;BME280;65563;45.970;12.680;2023-03-31T03:05:31;101307.88;;;11.29;82.07
76653;BME280;65563;45.970;12.680;2023-03-31T03:06:41;101306.75;;;11.23;81.94
76653;BME280;65563;45.970;12.680;2023-03-31T03:11:19;101301.34;;;11.16;82.76
76653;BME280;65563;45.970;12.680;2023-03-31T03:12:23;101302.44;;;11.22;82.52
76653;BME280;65563;45.970;12.680;2023-03-31T03:13:34;101306.03;;;11.29;82.44
76653;BME280;65563;45.970;12.680;2023-03-31T03:14:41;101308.06;;;11.27;82.41
76653;BME280;65563;45.970;12.680;2023-03-31T03:15:44;101304.75;;;11.25;82.50
76653;BME280;65563;45.970;12.680;2023-03-31T03:16:47;101308.88;;;11.28;82.21
76653;BME280;65563;45.970;12.680;2023-03-31T03:17:47;101302.44;;;11.22;82.43
76653;BME280;65563;45.970;12.680;2023-03-31T03:18:54;101303.25;;;11.22;82.62
76653;BME280;65563;45.970;12.680;2023-03-31T03:19:56;101311.72;;;11.26;82.49
76653;BME280;65563;45.970;12.680;2023-03-31T03:20:58;101301.91;;;11.27;82.36
76653;BME280;65563;45.970;12.680;2023-03-31T03:21:58;101298.59;;;11.25;82.16
76653;BME280;65563;45.970;12.680;2023-03-31T03:22:58;101300.19;;;11.34;81.98
76653;BME280;65563;45.970;12.680;2023-03-31T03:23:59;101289.56;;;11.34;82.06
76653;BME280;65563;45.970;12.680;2023-03-31T03:24:59;101283.22;;;11.35;81.92
76653;BME280;65563;45.970;12.680;2023-03-31T03:25:59;101285.66;;;11.21;82.00
76653;BME280;65563;45.970;12.680;2023-03-31T03:26:59;101288.78;;;11.25;82.29
76653;BME280;65563;45.970;12.680;2023-03-31T03:27:59;101281.47;;;11.27;82.02
76653;BME280;65563;45.970;12.680;2023-03-31T03:29:00;101286.97;;;11.26;82.00
76653;BME280;65563;45.970;12.680;2023-03-31T03:30:00;101285.47;;;11.23;82.17
76653;BME280;65563;45.970;12.680;2023-03-31T03:31:01;101285.41;;;11.16;82.15
76653;BME280;65563;45.970;12.680;2023-03-31T03:32:01;101284.19;;;11.19;82.32
76653;BME280;65563;45.970;12.680;2023-03-31T03:33:01;101277.59;;;11.15;82.32
76653;BME280;65563;45.970;12.680;2023-03-31T03:34:01;101270.44;;;11.15;82.58
76653;BME280;65563;45.970;12.680;2023-03-31T03:35:02;101274.75;;;11.16;82.50
76653;BME280;65563;45.970;12.680;2023-03-31T03:36:03;101271.72;;;11.19;82.45
76653;BME280;65563;45.970;12.680;2023-03-31T03:37:04;101269.72;;;11.21;82.12
76653;BME280;65563;45.970;12.680;2023-03-31T03:38:04;101276.06;;;11.20;82.03
76653;BME280;65563;45.970;12.680;2023-03-31T03:39:05;101276.41;;;11.17;81.95
76653;BME280;65563;45.970;12.680;2023-03-31T03:40:06;101270.63;;;11.14;81.94
76653;BME280;65563;45.970;12.680;2023-03-31T03:41:06;101271.81;;;11.11;82.19
76653;BME280;65563;45.970;12.680;2023-03-31T03:42:07;101274.34;;;11.05;82.43
76653;BME280;65563;45.970;12.680;2023-03-31T03:43:07;101274.69;;;11.02;82.41
76653;BME280;65563;45.970;12.680;2023-03-31T03:44:07;101276.84;;;11.06;82.29
76653;BME280;65563;45.970;12.680;2023-03-31T03:45:07;101277.34;;;11.02;82.38
76653;BME280;65563;45.970;12.680;2023-03-31T03:46:08;101277.69;;;10.98;82.68
76653;BME280;65563;45.970;12.680;2023-03-31T03:47:08;101280.88;;;11.02;82.39
76653;BME280;65563;45.970;12.680;2023-03-31T03:48:08;101282.50;;;11.03;82.22
76653;BME280;65563;45.970;12.680;2023-03-31T03:49:08;101285.31;;;11.02;82.22
76653;BME280;65563;45.970;12.680;2023-03-31T03:50:09;101281.13;;;11.07;82.06
76653;BME280;65563;45.970;12.680;2023-03-31T03:51:09;101272.50;;;11.05;82.04
76653;BME280;65563;45.970;12.680;2023-03-31T03:52:09;101273.53;;;11.04;81.95
76653;BME280;65563;45.970;12.680;2023-03-31T03:53:09;101274.47;;;11.11;81.90
76653;BME280;65563;45.970;12.680;2023-03-31T03:54:09;101270.50;;;11.07;81.83
76653;BME280;65563;45.970;12.680;2023-03-31T03:55:10;101267.03;;;11.07;81.84
76653;BME280;65563;45.970;12.680;2023-03-31T03:56:10;101272.16;;;11.08;82.01
76653;BME280;65563;45.970;12.680;2023-03-31T03:57:10;101266.31;;;11.13;81.77
76653;BME280;65563;45.970;12.680;2023-03-31T03:58:10;101265.00;;;11.09;81.71
76653;BME280;65563;45.970;12.680;2023-03-31T03:59:10;101264.47;;;11.13;81.72
76653;BME280;65563;45.970;12.680;2023-03-31T04:00:11;101260.00;;;11.14;81.43
76653;BME280;65563;45.970;12.680;2023-03-31T04:01:11;101258.22;;;11.06;81.66
76653;BME280;65563;45.970;12.680;2023-03-31T04:02:11;101257.88;;;11.09;81.82
76653;BME280;65563;45.970;12.680;2023-03-31T04:03:12;101261.47;;;11.16;81.47
76653;BME280;65563;45.970;12.680;2023-03-31T04:04:12;101251.66;;;11.17;81.20
76653;BME280;65563;45.970;12.680;2023-03-31T04:05:12;101256.78;;;11.18;81.33
76653;BME280;65563;45.970;12.680;2023-03-31T04:06:12;101256.78;;;11.18;81.26
76653;BME280;65563;45.970;12.680;2023-03-31T04:07:12;101260.38;;;11.26;81.24
76653;BME280;65563;45.970;12.680;2023-03-31T04:08:13;101268.22;;;11.19;81.30
76653;BME280;65563;45.970;12.680;2023-03-31T04:09:13;101279.69;;;11.19;81.26
76653;BME280;65563;45.970;12.680;2023-03-31T04:10:13;101275.13;;;11.13;81.39
76653;BME280;65563;45.970;12.680;2023-03-31T04:11:14;101274.47;;;11.11;81.49
76653;BME280;65563;45.970;12.680;2023-03-31T04:12:15;101275.00;;;11.07;81.84
76653;BME280;65563;45.970;12.680;2023-03-31T04:13:16;101276.09;;;11.12;81.49
76653;BME280;65563;45.970;12.680;2023-03-31T04:14:16;101274.38;;;11.19;81.36
76653;BME280;65563;45.970;12.680;2023-03-31T04:15:16;101262.75;;;11.20;81.09
76653;BME280;65563;45.970;12.680;2023-03-31T04:16:16;101272.38;;;11.21;81.02
76653;BME280;65563;45.970;12.680;2023-03-31T04:17:16;101274.22;;;11.21;81.17
76653;BME280;65563;45.970;12.680;2023-03-31T04:18:17;101276.06;;;11.20;80.89
76653;BME280;65563;45.970;12.680;2023-03-31T04:19:17;101274.03;;;11.22;80.95
76653;BME280;65563;45.970;12.680;2023-03-31T04:20:17;101272.19;;;11.23;80.90
76653;BME280;65563;45.970;12.680;2023-03-31T04:21:17;101273.66;;;11.26;80.72
76653;BME280;65563;45.970;12.680;2023-03-31T04:22:17;101273.84;;;11.24;80.88
76653;BME280;65563;45.970;12.680;2023-03-31T04:23:17;101272.03;;;11.25;80.58
76653;BME280;65563;45.970;12.680;2023-03-31T04:24:18;101277.16;;;11.26;80.52
76653;BME280;65563;45.970;12.680;2023-03-31T04:25:18;101268.81;;;11.29;80.48
76653;BME280;65563;45.970;12.680;2023-03-31T04:26:18;101263.38;;;11.22;80.72
76653;BME280;65563;45.970;12.680;2023-03-31T04:27:18;101250.75;;;11.25;80.50
76653;BME280;65563;45.970;12.680;2023-03-31T04:28:18;101259.00;;;11.30;80.35
76653;BME280;65563;45.970;12.680;2023-03-31T04:29:19;101258.19;;;11.29;80.42
76653;BME280;65563;45.970;12.680;2023-03-31T04:30:20;101249.94;;;11.24;80.30
76653;BME280;65563;45.970;12.680;2023-03-31T04:31:20;101247.78;;;11.19;80.70
76653;BME280;65563;45.970;12.680;2023-03-31T04:32:20;101243.56;;;11.10;81.06
76653;BME280;65563;45.970;12.680;2023-03-31T04:33:21;101243.84;;;11.15;80.86
76653;BME280;65563;45.970;12.680;2023-03-31T04:34:21;101250.63;;;11.18;80.81
76653;BME280;65563;45.970;12.680;2023-03-31T04:35:22;101260.25;;;11.19;80.55
76653;BME280;65563;45.970;12.680;2023-03-31T04:36:22;101259.75;;;11.23;80.32
76653;BME280;65563;45.970;12.680;2023-03-31T04:37:22;101260.81;;;11.14;80.77
76653;BME280;65563;45.970;12.680;2023-03-31T04:38:23;101254.13;;;11.18;80.67
76653;BME280;65563;45.970;12.680;2023-03-31T04:39:23;101256.16;;;11.16;80.83
76653;BME280;65563;45.970;12.680;2023-03-31T04:40:24;101253.41;;;11.25;80.83
76653;BME280;65563;45.970;12.680;2023-03-31T04:41:24;101252.59;;;11.24;80.51
76653;BME280;65563;45.970;12.680;2023-03-31T04:42:24;101248.19;;;11.16;81.06
76653;BME280;65563;45.970;12.680;2023-03-31T04:43:24;101249.09;;;11.23;80.63
76653;BME280;65563;45.970;12.680;2023-03-31T04:44:25;101248.44;;;11.21;80.69
76653;BME280;65563;45.970;12.680;2023-03-31T04:45:25;101248.25;;;11.23;80.50
76653;BME280;65563;45.970;12.680;2023-03-31T04:46:25;101244.97;;;11.21;80.96
76653;BME280;65563;45.970;12.680;2023-03-31T04:47:25;101240.47;;;11.21;80.63
76653;BME280;65563;45.970;12.680;2023-03-31T04:48:26;101240.75;;;11.27;80.45
76653;BME280;65563;45.970;12.680;2023-03-31T04:49:26;101235.88;;;11.15;80.61
76653;BME280;65563;45.970;12.680;2023-03-31T04:50:26;101237.91;;;11.13;80.85
76653;BME280;65563;45.970;12.680;2023-03-31T04:51:26;101241.75;;;11.26;80.35
76653;BME280;65563;45.970;12.680;2023-03-31T04:52:26;101227.28;;;11.28;80.47
76653;BME280;65563;45.970;12.680;2023-03-31T04:53:27;101231.94;;;11.26;80.44
76653;BME280;65563;45.970;12.680;2023-03-31T04:54:27;101240.22;;;11.31;80.34
76653;BME280;65563;45.970;12.680;2023-03-31T04:55:27;101238.56;;;11.30;80.34
76653;BME280;65563;45.970;12.680;2023-03-31T04:56:27;101240.03;;;11.33;79.76
76653;BME280;65563;45.970;12.680;2023-03-31T04:57:27;101249.38;;;11.29;79.70
76653;BME280;65563;45.970;12.680;2023-03-31T04:58:28;101247.28;;;11.39;79.55
76653;BME280;65563;45.970;12.680;2023-03-31T04:59:28;101242.63;;;11.41;79.62
76653;BME280;65563;45.970;12.680;2023-03-31T05:00:28;101241.16;;;11.38;79.60
76653;BME280;65563;45.970;12.680;2023-03-31T05:01:29;101237.94;;;11.43;79.48
76653;BME280;65563;45.970;12.680;2023-03-31T05:02:29;101233.34;;;11.37;79.61
76653;BME280;65563;45.970;12.680;2023-03-31T05:03:30;101233.78;;;11.40;79.43
76653;BME280;65563;45.970;12.680;2023-03-31T05:04:30;101232.50;;;11.36;79.52
76653;BME280;65563;45.970;12.680;2023-03-31T05:05:30;101232.41;;;11.30;79.62
76653;BME280;65563;45.970;12.680;2023-03-31T05:06:31;101233.72;;;11.34;79.48
76653;BME280;65563;45.970;12.680;2023-03-31T05:07:31;101224.88;;;11.33;79.65
76653;BME280;65563;45.970;12.680;2023-03-31T05:08:31;101219.06;;;11.38;79.41
76653;BME280;65563;45.970;12.680;2023-03-31T05:09:32;101209.78;;;11.34;79.68
76653;BME280;65563;45.970;12.680;2023-03-31T05:10:32;101210.50;;;11.42;79.47
76653;BME280;65563;45.970;12.680;2023-03-31T05:11:32;101218.50;;;11.42;79.41
76653;BME280;65563;45.970;12.680;2023-03-31T05:12:33;101215.19;;;11.40;79.39
76653;BME280;65563;45.970;12.680;2023-03-31T05:13:33;101212.91;;;11.37;79.14
76653;BME280;65563;45.970;12.680;2023-03-31T05:14:34;101218.41;;;11.36;79.52
76653;BME280;65563;45.970;12.680;2023-03-31T05:15:36;101212.91;;;11.37;79.36
76653;BME280;65563;45.970;12.680;2023-03-31T05:16:36;101211.25;;;11.36;79.29
76653;BME280;65563;45.970;12.680;2023-03-31T05:17:36;101205.19;;;11.42;79.24
76653;BME280;65563;45.970;12.680;2023-03-31T05:18:36;101209.50;;;11.43;79.05
76653;BME280;65563;45.970;12.680;2023-03-31T05:19:37;101211.34;;;11.43;79.15
76653;BME280;65563;45.970;12.680;2023-03-31T05:20:37;101208.22;;;11.39;79.18
76653;BME280;65563;45.970;12.680;2023-03-31T05:21:37;101204.00;;;11.30;79.57
76653;BME280;65563;45.970;12.680;2023-03-31T05:22:37;101209.31;;;11.30;79.67
76653;BME280;65563;45.970;12.680;2023-03-31T05:23:38;101202.63;;;11.34;79.65
76653;BME280;65563;45.970;12.680;2023-03-31T05:24:38;101208.50;;;11.44;79.00
76653;BME280;65563;45.970;12.680;2023-03-31T05:25:38;101200.34;;;11.46;78.75
76653;BME280;65563;45.970;12.680;2023-03-31T05:26:39;101203.66;;;11.48;78.99
76653;BME280;65563;45.970;12.680;2023-03-31T05:27:39;101201.72;;;11.57;78.59
76653;BME280;65563;45.970;12.680;2023-03-31T05:28:39;101195.13;;;11.53;79.04
76653;BME280;65563;45.970;12.680;2023-03-31T05:29:40;101197.22;;;11.57;78.56
76653;BME280;65563;45.970;12.680;2023-03-31T05:30:40;101196.59;;;11.55;78.95
76653;BME280;65563;45.970;12.680;2023-03-31T05:31:40;101196.59;;;11.55;78.57
76653;BME280;65563;45.970;12.680;2023-03-31T05:32:41;101205.47;;;11.47;78.97
76653;BME280;65563;45.970;12.680;2023-03-31T05:33:41;101206.22;;;11.56;78.51
76653;BME280;65563;45.970;12.680;2023-03-31T05:34:41;101204.66;;;11.62;78.48
76653;BME280;65563;45.970;12.680;2023-03-31T05:35:41;101201.34;;;11.60;78.72
76653;BME280;65563;45.970;12.680;2023-03-31T05:36:43;101198.41;;;11.55;78.72
76653;BME280;65563;45.970;12.680;2023-03-31T05:37:43;101195.28;;;11.51;78.88
76653;BME280;65563;45.970;12.680;2023-03-31T05:38:43;101200.59;;;11.51;78.82
76653;BME280;65563;45.970;12.680;2023-03-31T05:39:43;101196.28;;;11.50;78.63
76653;BME280;65563;45.970;12.680;2023-03-31T05:40:43;101211.44;;;11.50;78.71
76653;BME280;65563;45.970;12.680;2023-03-31T05:41:43;101212.09;;;11.52;78.51
76653;BME280;65563;45.970;12.680;2023-03-31T05:42:44;101216.56;;;11.51;78.87
76653;BME280;65563;45.970;12.680;2023-03-31T05:43:44;101213.28;;;11.49;79.03
76653;BME280;65563;45.970;12.680;2023-03-31T05:44:45;101214.66;;;11.60;78.53
76653;BME280;65563;45.970;12.680;2023-03-31T05:45:48;101207.84;;;11.72;78.07
76653;BME280;65563;45.970;12.680;2023-03-31T05:46:48;101203.72;;;11.69;78.04
76653;BME280;65563;45.970;12.680;2023-03-31T05:47:51;101205.38;;;11.70;78.04
76653;BME280;65563;45.970;12.680;2023-03-31T05:48:53;101205.19;;;11.72;77.87
76653;BME280;65563;45.970;12.680;2023-03-31T05:49:54;101205.38;;;11.70;77.89
76653;BME280;65563;45.970;12.680;2023-03-31T05:50:57;101206.66;;;11.60;78.19
76653;BME280;65563;45.970;12.680;2023-03-31T05:51:57;101207.00;;;11.71;77.71
76653;BME280;65563;45.970;12.680;2023-03-31T05:52:57;101212.69;;;11.68;77.82
76653;BME280;65563;45.970;12.680;2023-03-31T05:54:00;101220.16;;;11.58;77.96
76653;BME280;65563;45.970;12.680;2023-03-31T05:55:00;101210.34;;;11.59;78.30
76653;BME280;65563;45.970;12.680;2023-03-31T05:56:02;101203.19;;;11.59;78.09
76653;BME280;65563;45.970;12.680;2023-03-31T05:57:12;101195.66;;;11.63;78.02
76653;BME280;65563;45.970;12.680;2023-03-31T05:58:12;101189.69;;;11.61;78.08
76653;BME280;65563;45.970;12.680;2023-03-31T05:59:14;101183.53;;;11.60;77.85
76653;BME280;65563;45.970;12.680;2023-03-31T06:00:15;101176.94;;;11.56;78.21
76653;BME280;65563;45.970;12.680;2023-03-31T06:01:16;101179.88;;;11.46;78.65
76653;BME280;65563;45.970;12.680;2023-03-31T06:02:16;101188.22;;;11.43;78.64
76653;BME280;65563;45.970;12.680;2023-03-31T06:03:16;101190.72;;;11.45;78.55
76653;BME280;65563;45.970;12.680;2023-03-31T06:04:17;101201.34;;;11.45;78.87
76653;BME280;65563;45.970;12.680;2023-03-31T06:05:17;101193.19;;;11.46;78.68
76653;BME280;65563;45.970;12.680;2023-03-31T06:06:17;101190.63;;;11.53;78.54